Salt River, Missouri
Current Conditions -  °F | °C
As of 12:04 PM on Sunday 23 Nov 2014 (Local Time) from KUIN Reporting Station
Light Rain Light Rain  
Wind Chill: 53°   Ceiling: 500
Heat Index: 53°   Visibility: 3mi
Dew Point: 51°   Wind: 9mph
Humidity: 93%   Direction: 180°S
Pressure: 29.47"   Gusts: NA
Location:  39.4063°N, 91.6511°W
Report Text: KUIN 231804Z AUTO 18008KT 3SM -RA BR OVC005 12/11 A2947 RMK AO2 P0002 T01170106
Loading
Personal Weather Stations






























Interactive Weather Map New forecast layout! Learn more

10-Day Weather Forecast

Advertisements
Track Severe Weather on mobile